Arnhem, Netherlands
Current Conditions -  °F | °C
As of 4:55 AM on Sunday 25 Jan 2015 (Local Time) from EHDL Reporting Station
Haze Haze  
Wind Chill: 28°   Ceiling: 15000
Heat Index: 28°   Visibility: 3mi
Dew Point: 28°   Wind: 1mph
Humidity: 100%   Direction: 120°ESE
Pressure: 30.33"   Gusts: NA
Location:  51.98°N, 5.91°E
Report Text: EHDL 250355Z AUTO 12001KT 5000 BR OVC150 M02/M02 Q1027 WHT
Loading
Personal Weather Stations






























Interactive Weather Map New forecast layout! Learn more

10-Day Weather Forecast

Advertisements
Track Severe Weather on mobile